Time;durP1;ratioP1;P1;durP2;ratioP2;P2;SDS_P1;SDS_P2;PMS_P1;PMS_P2;Temp;Humidity;BMP_temperature;BMP_pressure;BME280_temperature;BME280_humidity;BME280_pressure;Samples;Min_cycle;Max_cycle;Signal;HPM_P1;HPM_P2
2022/05/16 00:01:03;;;;;;;;;;;21.30;46.90;;;;;;5126994;27;20468;-51
2022/05/16 00:03:29;;;;;;;;;;;20.00;48.80;;;;;;5126043;28;19930;-46
2022/05/16 00:05:55;;;;;;;;;;;19.90;48.50;;;;;;5123795;28;19926;-45
2022/05/16 00:08:21;;;;;;;;;;;19.80;48.50;;;;;;5129487;28;20014;-44
2022/05/16 00:10:47;;;;;;;;;;;19.70;48.50;;;;;;5122456;28;19992;-46
2022/05/16 00:13:12;;;;;;;;;;;20.80;48.30;;;;;;5121651;28;19974;-48
2022/05/16 00:15:38;;;;;;;;;;;21.70;46.40;;;;;;5128925;28;19946;-48
2022/05/16 00:18:05;;;;;;;;;;;20.60;47.80;;;;;;5123653;28;19967;-45
2022/05/16 00:20:31;;;;;;;;;;;19.90;48.80;;;;;;5124966;28;20018;-55
2022/05/16 00:22:56;;;;;;;;;;;19.50;49.60;;;;;;5128012;28;19931;-45
2022/05/16 00:25:22;;;;;;;;;;;19.80;49.40;;;;;;5124076;28;19967;-45
2022/05/16 00:27:48;;;;;;;;;;;21.00;48.00;;;;;;5129126;28;19934;-45
2022/05/16 00:30:14;;;;;;;;;;;21.70;46.10;;;;;;5120906;28;19930;-46
2022/05/16 00:32:40;;;;;;;;;;;20.30;48.30;;;;;;5122457;28;20112;-47
2022/05/16 00:35:07;;;;;;;;;;;19.70;49.30;;;;;;5128531;28;20317;-45
2022/05/16 00:37:32;;;;;;;;;;;19.80;48.50;;;;;;5123594;28;19924;-45
2022/05/16 00:39:59;;;;;;;;;;;20.30;49.10;;;;;;5123987;28;20301;-45
2022/05/16 00:42:25;;;;;;;;;;;21.30;47.20;;;;;;5128608;28;19927;-44
2022/05/16 00:44:50;;;;;;;;;;;21.00;46.90;;;;;;5123521;28;20055;-45
2022/05/16 00:47:16;;;;;;;;;;;20.30;48.20;;;;;;5127757;28;19923;-45
2022/05/16 00:49:43;;;;;;;;;;;19.90;48.60;;;;;;5102895;28;19931;-45
2022/05/16 00:52:10;;;;;;;;;;;19.60;48.80;;;;;;5104612;28;20006;-50
2022/05/16 00:54:37;;;;;;;;;;;20.50;49.00;;;;;;5128817;28;19980;-45
2022/05/16 00:57:07;;;;;;;;;;;21.50;47.10;;;;;;5102605;28;19924;-47
2022/05/16 00:59:53;;;;;;;;;;;20.80;47.50;;;;;;5123268;28;19924;-45
2022/05/16 01:05:06;;;;;;;;;;;19.80;49.00;;;;;;5118480;28;19973;-46
2022/05/16 01:07:35;;;;;;;;;;;20.20;49.20;;;;;;5121421;28;19927;-46
2022/05/16 01:10:01;;;;;;;;;;;21.30;47.60;;;;;;5127664;28;20479;-49
2022/05/16 01:12:32;;;;;;;;;;;21.30;46.70;;;;;;5122376;27;20022;-45
2022/05/16 01:14:58;;;;;;;;;;;20.20;48.70;;;;;;5122739;28;19949;-44
2022/05/16 01:17:23;;;;;;;;;;;20.00;48.60;;;;;;5128132;28;19924;-46
2022/05/16 01:19:50;;;;;;;;;;;19.90;48.40;;;;;;5122705;28;20382;-45
2022/05/16 01:22:18;;;;;;;;;;;20.50;49.00;;;;;;5128371;28;20081;-44
2022/05/16 01:24:44;;;;;;;;;;;21.50;46.80;;;;;;5103371;28;20156;-46
2022/05/16 01:27:10;;;;;;;;;;;20.80;47.50;;;;;;5121243;28;19972;-46
2022/05/16 01:29:36;;;;;;;;;;;19.80;49.10;;;;;;5127834;28;19923;-46
2022/05/16 01:32:02;;;;;;;;;;;19.80;49.10;;;;;;5122551;28;20365;-47
2022/05/16 01:34:28;;;;;;;;;;;19.70;48.50;;;;;;5122815;28;19924;-46
2022/05/16 01:36:54;;;;;;;;;;;20.80;48.70;;;;;;5128109;28;19967;-44
2022/05/16 01:39:19;;;;;;;;;;;21.60;46.60;;;;;;5104114;28;19923;-44
2022/05/16 01:41:45;;;;;;;;;;;20.40;48.10;;;;;;5124268;28;19927;-53
2022/05/16 01:44:11;;;;;;;;;;;19.90;49.10;;;;;;5122917;28;19923;-44
2022/05/16 01:46:39;;;;;;;;;;;19.60;49.20;;;;;;5121434;28;19923;-46
2022/05/16 01:49:05;;;;;;;;;;;19.60;49.80;;;;;;5127645;28;20306;-45
2022/05/16 01:51:30;;;;;;;;;;;20.80;48.60;;;;;;5104181;28;20022;-44
2022/05/16 01:53:57;;;;;;;;;;;21.70;46.60;;;;;;5122411;28;20023;-44
2022/05/16 01:56:23;;;;;;;;;;;20.30;48.40;;;;;;5127706;28;19931;-48
2022/05/16 01:58:49;;;;;;;;;;;20.10;48.40;;;;;;5122716;28;20286;-46
2022/05/16 02:01:14;;;;;;;;;;;19.80;48.50;;;;;;5120272;28;19930;-47
2022/05/16 02:03:41;;;;;;;;;;;20.30;49.50;;;;;;5125702;28;20286;-46
2022/05/16 02:06:07;;;;;;;;;;;21.30;47.80;;;;;;5121539;28;19928;-45
2022/05/16 02:08:33;;;;;;;;;;;21.30;46.80;;;;;;5127385;28;20405;-45
2022/05/16 02:11:02;;;;;;;;;;;20.30;48.50;;;;;;5102289;28;19931;-44
2022/05/16 02:13:28;;;;;;;;;;;19.80;49.20;;;;;;5086616;28;19924;-45
2022/05/16 02:15:54;;;;;;;;;;;19.80;48.90;;;;;;5127449;28;19942;-45
2022/05/16 02:18:19;;;;;;;;;;;20.10;49.60;;;;;;5121803;28;19927;-43
2022/05/16 02:20:45;;;;;;;;;;;21.30;47.80;;;;;;5100773;28;19934;-45
2022/05/16 02:25:56;;;;;;;;;;;20.40;48.00;;;;;;5121613;28;19924;-45
2022/05/16 02:28:22;;;;;;;;;;;19.90;48.60;;;;;;5103534;28;20076;-46
2022/05/16 02:30:48;;;;;;;;;;;19.60;49.10;;;;;;5127188;28;19927;-43
2022/05/16 02:33:14;;;;;;;;;;;20.80;49.00;;;;;;5103384;28;19924;-43
2022/05/16 02:35:40;;;;;;;;;;;21.60;46.90;;;;;;5127269;28;20283;-44
2022/05/16 02:38:06;;;;;;;;;;;20.60;48.10;;;;;;5119481;28;19930;-44
2022/05/16 02:40:32;;;;;;;;;;;20.10;48.50;;;;;;5119560;28;19928;-44
2022/05/16 02:42:58;;;;;;;;;;;19.80;48.70;;;;;;5126504;28;20387;-44
2022/05/16 02:45:24;;;;;;;;;;;19.80;49.40;;;;;;5121317;28;19934;-43
2022/05/16 02:47:51;;;;;;;;;;;20.90;48.50;;;;;;5103220;28;20085;-44
2022/05/16 02:50:18;;;;;;;;;;;21.70;46.60;;;;;;5126407;28;20037;-46
2022/05/16 02:52:44;;;;;;;;;;;20.30;48.60;;;;;;5103044;28;20371;-46
2022/05/16 02:55:09;;;;;;;;;;;19.90;48.90;;;;;;5126445;28;19976;-44
2022/05/16 02:57:35;;;;;;;;;;;19.90;48.70;;;;;;5118412;28;19956;-44
2022/05/16 03:00:01;;;;;;;;;;;19.80;49.40;;;;;;5101987;28;19930;-43
2022/05/16 03:02:27;;;;;;;;;;;21.00;48.40;;;;;;5126183;28;20379;-44
2022/05/16 03:04:53;;;;;;;;;;;21.70;46.50;;;;;;5120913;28;19928;-45
2022/05/16 03:07:19;;;;;;;;;;;20.50;48.20;;;;;;5120855;28;19923;-45
2022/05/16 03:09:44;;;;;;;;;;;19.90;48.80;;;;;;5126619;28;19927;-46
2022/05/16 03:12:10;;;;;;;;;;;19.70;48.90;;;;;;5121156;28;19960;-44
2022/05/16 03:14:36;;;;;;;;;;;19.80;48.80;;;;;;5123280;28;19934;-53
2022/05/16 03:17:02;;;;;;;;;;;20.80;48.50;;;;;;5102710;28;20410;-44
2022/05/16 03:19:28;;;;;;;;;;;21.60;46.60;;;;;;5120228;28;19929;-45
2022/05/16 03:21:54;;;;;;;;;;;20.30;48.20;;;;;;5126104;28;20287;-45
2022/05/16 03:24:20;;;;;;;;;;;20.10;48.30;;;;;;5120784;28;19927;-43
2022/05/16 03:26:46;;;;;;;;;;;19.80;48.60;;;;;;5120581;28;19927;-45
2022/05/16 03:29:13;;;;;;;;;;;20.20;48.60;;;;;;5126111;28;19924;-43
2022/05/16 03:31:42;;;;;;;;;;;21.30;46.70;;;;;;5120702;28;20010;-43
2022/05/16 03:34:09;;;;;;;;;;;21.30;45.80;;;;;;5117624;27;20224;-47
2022/05/16 03:36:35;;;;;;;;;;;20.30;47.50;;;;;;5124892;28;19928;-43
2022/05/16 03:41:45;;;;;;;;;;;20.00;48.00;;;;;;5123036;28;19927;-52
2022/05/16 03:44:11;;;;;;;;;;;21.20;46.30;;;;;;5123916;28;19928;-45
2022/05/16 03:46:37;;;;;;;;;;;21.40;45.10;;;;;;5102292;28;19927;-45
2022/05/16 03:49:03;;;;;;;;;;;20.10;47.70;;;;;;5126083;28;19923;-43
2022/05/16 03:51:29;;;;;;;;;;;19.90;47.90;;;;;;5118657;28;20025;-44
2022/05/16 03:53:55;;;;;;;;;;;19.70;48.00;;;;;;5100296;28;20022;-46
2022/05/16 03:56:22;;;;;;;;;;;20.30;48.40;;;;;;5107324;28;19927;-45
2022/05/16 03:58:48;;;;;;;;;;;21.40;45.80;;;;;;5120041;28;20426;-45
2022/05/16 04:01:13;;;;;;;;;;;21.20;45.60;;;;;;5120200;28;19924;-45
2022/05/16 04:03:39;;;;;;;;;;;20.10;47.70;;;;;;5125605;28;19931;-46
2022/05/16 04:06:05;;;;;;;;;;;19.70;48.30;;;;;;5120456;28;20359;-47
2022/05/16 04:08:31;;;;;;;;;;;20.80;47.40;;;;;;5125540;28;19931;-46
2022/05/16 04:11:00;;;;;;;;;;;21.80;45.00;;;;;;5117319;28;20022;-46
2022/05/16 04:13:26;;;;;;;;;;;20.70;46.70;;;;;;5119419;28;20040;-44
2022/05/16 04:15:52;;;;;;;;;;;20.10;47.50;;;;;;5125245;28;19927;-44
2022/05/16 04:18:19;;;;;;;;;;;19.70;48.10;;;;;;5101924;28;19976;-45
2022/05/16 04:20:44;;;;;;;;;;;20.30;48.30;;;;;;5119962;28;19924;-46
2022/05/16 04:23:10;;;;;;;;;;;21.50;45.70;;;;;;5105651;28;19943;-44
2022/05/16 04:25:38;;;;;;;;;;;21.20;45.80;;;;;;5120074;28;20375;-45
2022/05/16 04:28:07;;;;;;;;;;;20.10;47.70;;;;;;5124112;28;20060;-45
2022/05/16 04:30:33;;;;;;;;;;;19.80;48.00;;;;;;5119310;28;20375;-45
2022/05/16 04:32:59;;;;;;;;;;;20.10;48.80;;;;;;5119368;28;19973;-46
2022/05/16 04:35:25;;;;;;;;;;;21.30;46.50;;;;;;5125198;28;19927;-45
2022/05/16 04:37:51;;;;;;;;;;;21.40;45.60;;;;;;5119969;28;19923;-48
2022/05/16 04:40:17;;;;;;;;;;;20.10;47.90;;;;;;5119759;28;19924;-45
2022/05/16 04:42:44;;;;;;;;;;;19.70;48.50;;;;;;5125685;28;19938;-46
2022/05/16 04:45:14;;;;;;;;;;;20.30;48.90;;;;;;5120119;28;19924;-46
2022/05/16 04:47:39;;;;;;;;;;;21.40;46.40;;;;;;5118933;27;20442;-48
2022/05/16 04:50:06;;;;;;;;;;;21.30;46.10;;;;;;5127564;28;19938;-47
2022/05/16 04:52:32;;;;;;;;;;;20.20;48.10;;;;;;5122995;28;20009;-44
2022/05/16 04:54:58;;;;;;;;;;;19.80;48.60;;;;;;5128823;28;19923;-45
2022/05/16 04:57:24;;;;;;;;;;;19.70;49.10;;;;;;5122689;28;19929;-48
2022/05/16 04:59:50;;;;;;;;;;;20.80;48.70;;;;;;5123049;28;20018;-45
2022/05/16 05:02:16;;;;;;;;;;;21.80;46.30;;;;;;5108982;28;19977;-44
2022/05/16 05:04:42;;;;;;;;;;;20.70;47.90;;;;;;5121605;28;19924;-48
2022/05/16 05:07:08;;;;;;;;;;;19.90;48.90;;;;;;5120798;28;19927;-45
2022/05/16 05:14:31;;;;;;;;;;;20.00;49.40;;;;;;5127769;28;19927;-46
2022/05/16 05:15:18;;;;;;;;;;;21.50;46.70;;;;;;5076802;28;19993;-45
2022/05/16 05:17:44;;;;;;;;;;;20.10;49.10;;;;;;5128155;28;20396;-45
2022/05/16 05:20:13;;;;;;;;;;;19.80;49.00;;;;;;5122776;28;19927;-46
2022/05/16 05:22:40;;;;;;;;;;;19.80;49.90;;;;;;5121843;28;20207;-46
2022/05/16 05:25:06;;;;;;;;;;;20.90;49.00;;;;;;5125655;28;20382;-47
2022/05/16 05:27:32;;;;;;;;;;;21.80;46.80;;;;;;5122133;28;20243;-45
2022/05/16 05:29:57;;;;;;;;;;;20.50;49.00;;;;;;5127835;28;19928;-45
2022/05/16 05:32:23;;;;;;;;;;;19.80;49.50;;;;;;5122619;28;20321;-46
2022/05/16 05:34:49;;;;;;;;;;;19.70;49.20;;;;;;5122331;28;19927;-48
2022/05/16 05:37:16;;;;;;;;;;;20.50;50.20;;;;;;5127909;28;19928;-46
2022/05/16 05:39:42;;;;;;;;;;;21.60;47.90;;;;;;5122441;28;20016;-45
2022/05/16 05:42:08;;;;;;;;;;;21.10;48.00;;;;;;5120232;28;20386;-49
2022/05/16 05:44:33;;;;;;;;;;;20.20;49.20;;;;;;5126387;28;19924;-45
2022/05/16 05:46:59;;;;;;;;;;;19.80;49.50;;;;;;5121999;28;19931;-45
2022/05/16 05:49:25;;;;;;;;;;;20.10;50.80;;;;;;5126212;28;19931;-55
2022/05/16 05:51:51;;;;;;;;;;;21.20;48.90;;;;;;5123902;28;19930;-47
2022/05/16 05:54:17;;;;;;;;;;;21.50;47.70;;;;;;5122329;28;19976;-45
2022/05/16 05:56:42;;;;;;;;;;;20.30;49.30;;;;;;5127885;28;19927;-46
2022/05/16 05:59:08;;;;;;;;;;;19.90;49.60;;;;;;5103416;28;20588;-47
2022/05/16 06:01:34;;;;;;;;;;;19.80;50.40;;;;;;5119396;28;19923;-48
2022/05/16 06:04:00;;;;;;;;;;;20.90;50.00;;;;;;5126518;28;19959;-46
2022/05/16 06:06:26;;;;;;;;;;;21.80;47.60;;;;;;5103522;28;19923;-46
2022/05/16 06:08:51;;;;;;;;;;;20.60;49.50;;;;;;5123889;28;20314;-53
2022/05/16 06:11:17;;;;;;;;;;;20.00;49.70;;;;;;5125817;28;20302;-45
2022/05/16 06:13:43;;;;;;;;;;;19.80;49.60;;;;;;5121920;28;20388;-46
2022/05/16 06:16:09;;;;;;;;;;;20.60;50.80;;;;;;5127496;28;19999;-47
2022/05/16 06:18:35;;;;;;;;;;;21.60;48.60;;;;;;5120180;28;19924;-51
2022/05/16 06:21:01;;;;;;;;;;;21.10;48.80;;;;;;5120035;28;19930;-44
2022/05/16 06:23:27;;;;;;;;;;;20.30;49.90;;;;;;5126540;28;19923;-47
2022/05/16 06:25:53;;;;;;;;;;;20.00;49.50;;;;;;5121818;28;19927;-45
2022/05/16 06:28:20;;;;;;;;;;;19.80;50.80;;;;;;5099742;28;19924;-45
2022/05/16 06:30:47;;;;;;;;;;;20.90;50.60;;;;;;5127057;28;19924;-44
2022/05/16 06:33:13;;;;;;;;;;;21.80;48.50;;;;;;5121964;28;20030;-44
2022/05/16 06:35:38;;;;;;;;;;;20.70;49.70;;;;;;5127173;28;19972;-45
2022/05/16 06:38:05;;;;;;;;;;;20.30;49.80;;;;;;5118677;28;20038;-46
2022/05/16 06:40:31;;;;;;;;;;;19.70;50.40;;;;;;5120663;28;20323;-44
2022/05/16 06:42:57;;;;;;;;;;;20.10;51.50;;;;;;5126687;28;19923;-47
2022/05/16 06:45:22;;;;;;;;;;;21.20;50.30;;;;;;5121481;28;19928;-44
2022/05/16 06:47:48;;;;;;;;;;;21.80;48.60;;;;;;5121108;28;19924;-49
2022/05/16 06:50:14;;;;;;;;;;;20.50;50.20;;;;;;5126740;28;20371;-45
2022/05/16 06:52:40;;;;;;;;;;;20.10;50.20;;;;;;5121624;28;19923;-45
2022/05/16 06:55:06;;;;;;;;;;;20.00;49.90;;;;;;5125217;28;19927;-46
2022/05/16 06:57:33;;;;;;;;;;;20.70;51.50;;;;;;5119402;28;19927;-47
2022/05/16 06:59:59;;;;;;;;;;;21.70;49.20;;;;;;5120674;28;19927;-45
2022/05/16 07:02:25;;;;;;;;;;;20.90;49.50;;;;;;5126639;28;20010;-45
2022/05/16 07:04:51;;;;;;;;;;;20.20;50.50;;;;;;5102627;28;20286;-47
2022/05/16 07:07:17;;;;;;;;;;;19.90;50.30;;;;;;5120842;28;20119;-45
2022/05/16 07:09:42;;;;;;;;;;;19.80;50.00;;;;;;5126015;27;19924;-46
2022/05/16 07:12:08;;;;;;;;;;;20.00;51.70;;;;;;5121268;28;19923;-48
2022/05/16 07:14:35;;;;;;;;;;;21.10;51.10;;;;;;5122580;28;19934;-52
2022/05/16 07:17:01;;;;;;;;;;;21.80;49.00;;;;;;5121463;28;19972;-44
2022/05/16 07:19:31;;;;;;;;;;;20.60;50.50;;;;;;5120750;28;19933;-44
2022/05/16 07:21:57;;;;;;;;;;;20.30;50.30;;;;;;5126353;28;19923;-45
2022/05/16 07:24:23;;;;;;;;;;;20.00;50.10;;;;;;5120721;28;20315;-44
2022/05/16 07:29:34;;;;;;;;;;;20.50;51.90;;;;;;5126157;28;19930;-44
2022/05/16 07:31:59;;;;;;;;;;;21.60;50.40;;;;;;5099308;28;19962;-46
2022/05/16 07:34:25;;;;;;;;;;;21.10;50.30;;;;;;5118863;28;20311;-46
2022/05/16 07:36:51;;;;;;;;;;;20.30;51.10;;;;;;5125939;28;19931;-44
2022/05/16 07:39:16;;;;;;;;;;;20.00;50.70;;;;;;5120317;28;19923;-47
2022/05/16 07:41:43;;;;;;;;;;;19.90;50.20;;;;;;5105858;28;19924;-52
2022/05/16 07:44:09;;;;;;;;;;;20.40;52.70;;;;;;5123081;28;20031;-46
2022/05/16 07:46:35;;;;;;;;;;;21.50;51.00;;;;;;5120739;28;19927;-45
2022/05/16 07:49:01;;;;;;;;;;;21.60;49.80;;;;;;5126247;28;19923;-45
2022/05/16 07:51:27;;;;;;;;;;;20.60;50.80;;;;;;5117579;28;20405;-45
2022/05/16 07:53:53;;;;;;;;;;;20.10;51.00;;;;;;5119607;28;20003;-45
2022/05/16 07:56:18;;;;;;;;;;;19.90;50.70;;;;;;5125584;28;19927;-50
2022/05/16 07:58:44;;;;;;;;;;;19.80;51.60;;;;;;5120513;28;20287;-46
2022/05/16 08:01:10;;;;;;;;;;;20.90;52.50;;;;;;5120929;28;20307;-55
2022/05/16 08:03:36;;;;;;;;;;;21.80;50.90;;;;;;5125472;28;20019;-45
2022/05/16 08:06:02;;;;;;;;;;;21.10;51.10;;;;;;5120520;28;20371;-45
2022/05/16 08:11:12;;;;;;;;;;;20.00;51.70;;;;;;5120104;28;19927;-46
2022/05/16 08:13:38;;;;;;;;;;;19.60;51.80;;;;;;5119865;28;19923;-47
2022/05/16 08:16:04;;;;;;;;;;;20.40;53.70;;;;;;5125632;28;20600;-47
2022/05/16 08:18:30;;;;;;;;;;;21.40;53.10;;;;;;5120162;28;19924;-48
2022/05/16 08:20:55;;;;;;;;;;;21.80;51.50;;;;;;5119930;27;19924;-50
2022/05/16 08:23:25;;;;;;;;;;;20.60;52.60;;;;;;5128634;28;19996;-46
2022/05/16 08:25:52;;;;;;;;;;;20.20;51.90;;;;;;5123527;28;20371;-45
2022/05/16 08:28:19;;;;;;;;;;;19.80;51.90;;;;;;5102599;28;19933;-47
2022/05/16 08:30:45;;;;;;;;;;;19.70;51.50;;;;;;5128070;28;19928;-45
2022/05/16 08:33:11;;;;;;;;;;;20.60;55.10;;;;;;5103623;27;19938;-46
2022/05/16 08:35:37;;;;;;;;;;;21.50;54.10;;;;;;5110472;28;19927;-43
2022/05/16 08:40:47;;;;;;;;;;;20.60;53.00;;;;;;5123435;28;19947;-47
2022/05/16 08:43:32;;;;;;;;;;;20.30;52.30;;;;;;5128908;28;19961;-45
2022/05/16 08:46:18;;;;;;;;;;;19.80;52.40;;;;;;5120973;28;20112;-46
2022/05/16 08:48:44;;;;;;;;;;;19.70;53.60;;;;;;5103900;28;20000;-45
2022/05/16 08:51:14;;;;;;;;;;;21.00;55.20;;;;;;5128476;28;20405;-48
2022/05/16 08:53:41;;;;;;;;;;;21.70;54.40;;;;;;5104847;28;20064;-45
2022/05/16 08:56:07;;;;;;;;;;;21.10;53.80;;;;;;5123015;28;19927;-44
2022/05/16 08:58:34;;;;;;;;;;;20.30;53.40;;;;;;5110312;28;19927;-42
2022/05/16 09:01:04;;;;;;;;;;;20.10;52.80;;;;;;5104674;28;20007;-44
2022/05/16 09:03:38;;;;;;;;;;;19.80;52.50;;;;;;5103164;28;19963;-46
2022/05/16 09:06:12;;;;;;;;;;;20.10;54.80;;;;;;5126540;28;19923;-46
2022/05/16 09:08:40;;;;;;;;;;;21.10;55.90;;;;;;5104751;28;20014;-45
2022/05/16 09:11:09;;;;;;;;;;;21.90;54.00;;;;;;5102544;28;20464;-44
2022/05/16 09:13:38;;;;;;;;;;;20.80;53.90;;;;;;5110155;28;19923;-47
2022/05/16 09:16:23;;;;;;;;;;;20.40;53.30;;;;;;5122641;28;19923;-45
2022/05/16 09:18:52;;;;;;;;;;;20.10;52.80;;;;;;5122801;28;20199;-48
2022/05/16 09:21:25;;;;;;;;;;;20.00;51.90;;;;;;5109177;28;20199;-48
2022/05/16 09:23:51;;;;;;;;;;;20.00;52.40;;;;;;5120182;28;20046;-45
2022/05/16 09:26:20;;;;;;;;;;;20.90;55.60;;;;;;5123983;28;19944;-55
2022/05/16 09:28:47;;;;;;;;;;;21.70;55.00;;;;;;5127836;28;20017;-45
2022/05/16 09:31:20;;;;;;;;;;;21.30;53.50;;;;;;5122574;28;20173;-45
2022/05/16 09:33:47;;;;;;;;;;;20.70;53.30;;;;;;5109059;28;20095;-44
2022/05/16 09:36:13;;;;;;;;;;;20.30;52.40;;;;;;5122533;28;19975;-45
2022/05/16 09:38:44;;;;;;;;;;;20.10;52.10;;;;;;5122805;28;19954;-45
2022/05/16 09:41:11;;;;;;;;;;;19.80;52.40;;;;;;5125576;28;19927;-54
2022/05/16 09:43:41;;;;;;;;;;;20.80;55.60;;;;;;5102461;28;19939;-46
2022/05/16 09:46:22;;;;;;;;;;;21.70;54.60;;;;;;5103685;28;20120;-44
2022/05/16 09:48:54;;;;;;;;;;;21.40;53.30;;;;;;5127705;28;20014;-45
2022/05/16 09:51:20;;;;;;;;;;;20.70;53.10;;;;;;5122193;28;19927;-46
2022/05/16 09:53:46;;;;;;;;;;;20.30;52.60;;;;;;5122074;28;20145;-44
2022/05/16 09:56:15;;;;;;;;;;;20.10;52.00;;;;;;5127536;28;20051;-43
2022/05/16 09:59:00;;;;;;;;;;;20.20;51.40;;;;;;5102263;28;20377;-45
2022/05/16 10:01:31;;;;;;;;;;;20.30;52.70;;;;;;5100572;28;20217;-48
2022/05/16 10:03:58;;;;;;;;;;;21.20;54.60;;;;;;5108986;28;19931;-48
2022/05/16 10:06:30;;;;;;;;;;;21.70;53.30;;;;;;5103375;28;19931;-44
2022/05/16 10:08:58;;;;;;;;;;;20.80;53.30;;;;;;5122222;28;20438;-51
2022/05/16 10:11:28;;;;;;;;;;;20.40;52.70;;;;;;5108897;28;19933;-44
2022/05/16 10:13:54;;;;;;;;;;;20.10;52.50;;;;;;5103635;28;19928;-48
2022/05/16 10:16:19;;;;;;;;;;;20.10;51.50;;;;;;5126899;28;19973;-45
2022/05/16 10:18:47;;;;;;;;;;;20.60;55.10;;;;;;5119167;28;20367;-47
2022/05/16 10:21:18;;;;;;;;;;;21.60;53.90;;;;;;5100658;28;20464;-45
2022/05/16 10:23:44;;;;;;;;;;;21.60;52.70;;;;;;5108748;28;19929;-44
2022/05/16 10:26:14;;;;;;;;;;;20.70;53.00;;;;;;5121556;28;19927;-44
2022/05/16 10:28:41;;;;;;;;;;;20.40;52.50;;;;;;5121478;28;19930;-43
2022/05/16 10:33:54;;;;;;;;;;;20.00;51.50;;;;;;5106140;28;19992;-44
2022/05/16 10:36:25;;;;;;;;;;;20.30;54.30;;;;;;5119414;28;20072;-48
2022/05/16 10:39:04;;;;;;;;;;;21.30;54.30;;;;;;5124862;28;21273;-46
2022/05/16 10:41:31;;;;;;;;;;;21.60;53.20;;;;;;5121421;28;19968;-46
2022/05/16 10:44:00;;;;;;;;;;;20.90;52.70;;;;;;5120844;27;20367;-44
2022/05/16 10:46:27;;;;;;;;;;;20.40;52.60;;;;;;5126065;28;20302;-45
2022/05/16 10:48:55;;;;;;;;;;;20.20;51.90;;;;;;5121379;28;20025;-44
2022/05/16 10:51:33;;;;;;;;;;;20.20;51.20;;;;;;5125670;28;20283;-54
2022/05/16 10:54:18;;;;;;;;;;;20.00;53.10;;;;;;5125045;28;20076;-48
2022/05/16 10:56:50;;;;;;;;;;;21.00;54.90;;;;;;5119654;28;19923;-45
2022/05/16 10:59:36;;;;;;;;;;;21.90;53.20;;;;;;5102377;28;19964;-50
2022/05/16 11:02:38;;;;;;;;;;;20.90;53.20;;;;;;5108794;28;19927;-46
2022/05/16 11:05:04;;;;;;;;;;;20.50;52.50;;;;;;5017514;28;19925;-48
2022/05/16 11:07:42;;;;;;;;;;;20.30;51.70;;;;;;5099457;28;19931;-45
2022/05/16 11:10:10;;;;;;;;;;;20.10;51.40;;;;;;5126622;28;20364;-46
2022/05/16 11:12:39;;;;;;;;;;;19.90;52.40;;;;;;5100588;28;19943;-50
2022/05/16 11:15:24;;;;;;;;;;;20.90;54.60;;;;;;5119254;28;19923;-46
2022/05/16 11:18:09;;;;;;;;;;;21.80;53.60;;;;;;5126148;28;19968;-45
2022/05/16 11:20:39;;;;;;;;;;;21.20;52.90;;;;;;5100922;28;20010;-44
2022/05/16 11:23:28;;;;;;;;;;;20.50;52.70;;;;;;5120983;28;20012;-48
2022/05/16 11:26:16;;;;;;;;;;;20.40;52.00;;;;;;5078241;28;20291;-45
2022/05/16 11:29:16;;;;;;;;;;;19.90;52.30;;;;;;5124623;28;20035;-45
2022/05/16 11:31:29;;;;;;;;;;;19.90;52.30;;;;;;5102797;28;19945;-47
2022/05/16 11:33:56;;;;;;;;;;;20.90;55.00;;;;;;5123851;28;19935;-55
2022/05/16 11:36:32;;;;;;;;;;;21.80;53.60;;;;;;5121930;28;20234;-44
2022/05/16 11:39:07;;;;;;;;;;;21.30;52.80;;;;;;5101624;28;20302;-45
2022/05/16 11:41:40;;;;;;;;;;;20.50;52.80;;;;;;5107685;28;19927;-47
2022/05/16 11:44:09;;;;;;;;;;;20.30;52.20;;;;;;5122200;28;19975;-44
2022/05/16 11:46:41;;;;;;;;;;;20.20;51.80;;;;;;5120837;28;19971;-46
2022/05/16 11:49:19;;;;;;;;;;;20.30;54.50;;;;;;5124255;28;19930;-49
2022/05/16 11:52:04;;;;;;;;;;;21.30;54.20;;;;;;5100416;28;19931;-45
2022/05/16 11:54:50;;;;;;;;;;;21.80;52.60;;;;;;5120208;28;19923;-46
2022/05/16 12:02:49;;;;;;;;;;;20.10;51.80;;;;;;5123965;28;19923;-46
2022/05/16 12:05:21;;;;;;;;;;;20.00;50.90;;;;;;5124158;28;19962;-44
2022/05/16 12:07:48;;;;;;;;;;;20.80;54.30;;;;;;5127500;28;20389;-47
2022/05/16 12:10:14;;;;;;;;;;;21.60;53.20;;;;;;5122497;28;20375;-47
2022/05/16 12:12:41;;;;;;;;;;;21.10;52.70;;;;;;5126942;28;19924;-53
2022/05/16 12:15:11;;;;;;;;;;;20.40;52.70;;;;;;5126418;28;20524;-44
2022/05/16 12:17:38;;;;;;;;;;;20.20;51.90;;;;;;5105616;28;20376;-46
2022/05/16 12:20:13;;;;;;;;;;;19.90;51.80;;;;;;5110987;28;19934;-45
2022/05/16 12:22:38;;;;;;;;;;;19.90;53.80;;;;;;5105616;28;19927;-49
2022/05/16 12:25:23;;;;;;;;;;;21.00;54.90;;;;;;5123369;28;19949;-51
2022/05/16 12:27:49;;;;;;;;;;;21.80;53.50;;;;;;5126645;28;20026;-47
2022/05/16 12:30:34;;;;;;;;;;;20.80;53.50;;;;;;5104591;28;20494;-44
2022/05/16 12:33:00;;;;;;;;;;;20.30;53.20;;;;;;5123404;28;19924;-46
2022/05/16 12:35:27;;;;;;;;;;;19.90;52.80;;;;;;5128977;28;19972;-46
2022/05/16 12:37:53;;;;;;;;;;;19.50;52.70;;;;;;5123359;28;19927;-44
2022/05/16 12:40:39;;;;;;;;;;;20.40;56.20;;;;;;5104943;28;19971;-46
2022/05/16 12:43:14;;;;;;;;;;;21.30;55.80;;;;;;5076213;28;19931;-45
2022/05/16 12:45:58;;;;;;;;;;;21.50;54.30;;;;;;5102308;28;19946;-45
2022/05/16 12:48:43;;;;;;;;;;;20.40;54.00;;;;;;5122617;28;19930;-47
2022/05/16 12:51:09;;;;;;;;;;;19.80;54.10;;;;;;5128450;28;20025;-46
2022/05/16 12:53:45;;;;;;;;;;;19.80;53.10;;;;;;5123254;28;19924;-46
2022/05/16 12:56:22;;;;;;;;;;;20.00;56.90;;;;;;5104619;28;19949;-48
2022/05/16 12:58:57;;;;;;;;;;;21.00;58.00;;;;;;5128600;28;20014;-44
2022/05/16 13:01:49;;;;;;;;;;;21.80;56.30;;;;;;5123019;28;19923;-46
2022/05/16 13:04:21;;;;;;;;;;;20.70;55.70;;;;;;5115299;28;19923;-47
2022/05/16 13:06:49;;;;;;;;;;;19.90;55.00;;;;;;5127391;27;19927;-51
2022/05/16 13:09:25;;;;;;;;;;;19.90;53.50;;;;;;5103200;28;19924;-48
2022/05/16 13:11:59;;;;;;;;;;;19.80;55.90;;;;;;5104533;28;19991;-45
2022/05/16 13:14:37;;;;;;;;;;;20.80;59.40;;;;;;5109888;28;19924;-45
2022/05/16 13:17:06;;;;;;;;;;;21.60;58.40;;;;;;5125438;28;19923;-44
2022/05/16 13:19:33;;;;;;;;;;;21.20;56.40;;;;;;5123066;28;20009;-44
2022/05/16 13:22:10;;;;;;;;;;;20.30;55.70;;;;;;5125119;28;19941;-47
2022/05/16 13:24:36;;;;;;;;;;;20.00;54.60;;;;;;5121944;28;20017;-46
2022/05/16 13:29:47;;;;;;;;;;;19.80;54.10;;;;;;5128348;28;20014;-46
2022/05/16 13:32:13;;;;;;;;;;;20.70;59.00;;;;;;5122572;28;19931;-44
2022/05/16 13:34:43;;;;;;;;;;;21.50;58.90;;;;;;5104121;28;20659;-43
2022/05/16 13:37:09;;;;;;;;;;;21.50;56.80;;;;;;5128200;28;19923;-45
2022/05/16 13:39:35;;;;;;;;;;;20.60;55.70;;;;;;5120686;28;19971;-47
2022/05/16 13:42:01;;;;;;;;;;;20.20;54.90;;;;;;5121073;28;20017;-50
2022/05/16 13:44:40;;;;;;;;;;;19.90;54.00;;;;;;5108704;28;19961;-45
2022/05/16 13:47:07;;;;;;;;;;;19.80;53.60;;;;;;5122409;28;19933;-45
2022/05/16 13:49:33;;;;;;;;;;;20.10;57.10;;;;;;5123281;28;20383;-52
2022/05/16 13:51:59;;;;;;;;;;;21.00;59.60;;;;;;5127497;28;20021;-46
2022/05/16 13:54:26;;;;;;;;;;;21.70;58.90;;;;;;5122530;28;19923;-48
2022/05/16 13:56:55;;;;;;;;;;;20.90;57.20;;;;;;5127522;28;20003;-48
2022/05/16 13:59:28;;;;;;;;;;;20.40;55.80;;;;;;5119677;28;19981;-46
2022/05/16 14:02:04;;;;;;;;;;;20.20;54.70;;;;;;5121256;28;19923;-46
2022/05/16 14:04:31;;;;;;;;;;;20.00;54.00;;;;;;5109586;28;20002;-44
2022/05/16 14:07:01;;;;;;;;;;;19.80;54.20;;;;;;5122172;28;19924;-44
2022/05/16 14:09:32;;;;;;;;;;;20.60;59.20;;;;;;5121978;28;20287;-45
2022/05/16 14:11:58;;;;;;;;;;;21.30;59.60;;;;;;5127328;28;20382;-45
2022/05/16 14:14:25;;;;;;;;;;;21.80;58.10;;;;;;5121972;28;20011;-47
2022/05/16 14:16:52;;;;;;;;;;;20.80;56.60;;;;;;5099130;28;20065;-48
2022/05/16 14:19:37;;;;;;;;;;;20.30;55.70;;;;;;5125916;27;19927;-48
2022/05/16 14:22:07;;;;;;;;;;;20.00;54.40;;;;;;5121464;28;19923;-48
2022/05/16 14:24:39;;;;;;;;;;;19.80;54.30;;;;;;5103460;28;19957;-45
2022/05/16 14:27:18;;;;;;;;;;;19.90;53.50;;;;;;5127189;28;19927;-46
2022/05/16 14:29:54;;;;;;;;;;;20.60;58.70;;;;;;5121696;28;20375;-46
2022/05/16 14:32:20;;;;;;;;;;;21.30;60.10;;;;;;5122139;28;20022;-46
2022/05/16 14:34:49;;;;;;;;;;;21.50;58.30;;;;;;5125021;28;19932;-46
2022/05/16 14:37:22;;;;;;;;;;;20.60;57.00;;;;;;5101679;28;20022;-45
2022/05/16 14:39:51;;;;;;;;;;;20.30;55.50;;;;;;5123767;28;19924;-52
2022/05/16 14:42:21;;;;;;;;;;;20.00;54.50;;;;;;5107409;28;19923;-45
2022/05/16 14:44:55;;;;;;;;;;;19.90;54.20;;;;;;5121291;28;19932;-47
2022/05/16 14:47:30;;;;;;;;;;;20.30;59.00;;;;;;5126951;28;20320;-45
2022/05/16 14:49:56;;;;;;;;;;;21.30;60.10;;;;;;5123571;28;20250;-44
2022/05/16 14:52:25;;;;;;;;;;;21.80;58.50;;;;;;5120300;28;19958;-44
2022/05/16 14:54:55;;;;;;;;;;;21.00;57.00;;;;;;5124103;28;20022;-49